createdAt,value
2019-05-25T00:01:23.631Z,15.40
2019-05-25T00:03:52.906Z,15.40
2019-05-25T00:06:21.994Z,15.40
2019-05-25T00:08:51.109Z,15.30
2019-05-25T00:11:23.367Z,15.20
2019-05-25T00:13:56.734Z,15.20
2019-05-25T00:16:26.164Z,15.10
2019-05-25T00:18:55.292Z,14.90
2019-05-25T00:21:24.949Z,14.90
2019-05-25T00:23:54.063Z,14.80
2019-05-25T00:26:23.558Z,14.80
2019-05-25T00:28:52.645Z,14.60
2019-05-25T00:31:21.759Z,14.70
2019-05-25T00:33:52.949Z,14.70
2019-05-25T00:36:24.114Z,14.80
2019-05-25T00:38:54.260Z,14.80
2019-05-25T00:41:23.383Z,14.80
2019-05-25T00:43:52.759Z,14.80
2019-05-25T00:46:22.578Z,14.80
2019-05-25T00:48:52.690Z,14.90
2019-05-25T00:51:21.839Z,14.80
2019-05-25T00:53:52.506Z,14.80
2019-05-25T00:56:22.666Z,14.80
2019-05-25T00:58:52.438Z,14.80
2019-05-25T01:01:24.396Z,14.70
2019-05-25T01:03:52.375Z,14.80
2019-05-25T01:06:21.502Z,14.60
2019-05-25T01:08:51.906Z,14.50
2019-05-25T01:11:21.833Z,14.50
2019-05-25T01:13:50.934Z,14.50
2019-05-25T01:16:21.376Z,14.50
2019-05-25T01:18:50.456Z,14.50
2019-05-25T01:21:19.535Z,14.40
2019-05-25T01:23:49.796Z,14.40
2019-05-25T01:26:18.948Z,14.40
2019-05-25T01:28:52.372Z,14.40
2019-05-25T01:31:21.867Z,14.30
2019-05-25T01:33:52.745Z,14.30
2019-05-25T01:36:21.937Z,14.20
2019-05-25T01:38:55.078Z,14.20
2019-05-25T01:41:23.886Z,14.10
2019-05-25T01:43:54.352Z,14.20
2019-05-25T01:46:23.787Z,14.10
2019-05-25T01:48:52.923Z,14.10
2019-05-25T01:51:24.582Z,14.10
2019-05-25T01:53:57.919Z,14.20
2019-05-25T01:56:27.084Z,14.20
2019-05-25T01:58:56.147Z,14.30
2019-05-25T02:01:25.987Z,14.30
2019-05-25T02:03:59.232Z,14.30
2019-05-25T02:06:30.543Z,14.20
2019-05-25T02:09:00.009Z,14.20
2019-05-25T02:11:29.122Z,14.10
2019-05-25T02:13:58.197Z,13.90
2019-05-25T02:16:27.314Z,13.90
2019-05-25T02:18:56.412Z,13.90
2019-05-25T02:21:25.479Z,13.90
2019-05-25T02:23:54.905Z,13.70
2019-05-25T02:26:25.065Z,13.70
2019-05-25T02:28:55.926Z,13.80
2019-05-25T02:31:26.065Z,13.80
2019-05-25T02:33:58.253Z,13.80
2019-05-25T02:36:28.465Z,13.70
2019-05-25T02:39:00.217Z,13.70
2019-05-25T02:41:31.422Z,13.70
2019-05-25T02:44:00.873Z,13.70
2019-05-25T02:46:30.252Z,13.70
2019-05-25T02:48:59.802Z,13.70
2019-05-25T02:51:30.300Z,13.70
2019-05-25T02:54:00.445Z,13.70
2019-05-25T02:56:30.573Z,13.70
2019-05-25T02:59:00.674Z,13.70
2019-05-25T03:01:30.786Z,13.70
2019-05-25T03:04:02.978Z,13.70
2019-05-25T03:06:33.757Z,13.70
2019-05-25T03:09:04.724Z,13.60
2019-05-25T03:11:33.820Z,13.60
2019-05-25T03:21:07.578Z,13.30
2019-05-25T03:24:30.847Z,13.30
2019-05-25T03:30:41.936Z,13.30
2019-05-25T03:36:52.658Z,13.30
2019-05-25T03:39:57.780Z,13.30
2019-05-25T03:46:08.494Z,13.40
2019-05-25T03:52:19.265Z,13.40
2019-05-25T03:58:29.513Z,13.40
2019-05-25T04:04:39.483Z,13.30
2019-05-25T04:10:50.025Z,13.30
2019-05-25T04:14:21.327Z,13.40
2019-05-25T04:16:52.193Z,13.40
2019-05-25T04:19:22.337Z,13.50
2019-05-25T04:21:51.730Z,13.40
2019-05-25T04:24:20.841Z,13.50
2019-05-25T04:26:49.935Z,13.50
2019-05-25T04:29:20.054Z,13.60
2019-05-25T04:31:50.451Z,13.80
2019-05-25T04:34:19.645Z,13.90
2019-05-25T04:36:48.751Z,14.10
2019-05-25T04:39:18.255Z,14.20
2019-05-25T04:41:47.354Z,14.30
2019-05-25T04:44:16.755Z,14.30
2019-05-25T04:46:45.937Z,14.30
2019-05-25T04:49:15.054Z,14.40
2019-05-25T04:51:44.470Z,14.60
2019-05-25T04:54:13.840Z,14.70
2019-05-25T04:56:42.970Z,14.90
2019-05-25T04:59:12.051Z,15.00
2019-05-25T05:01:41.184Z,15.10
2019-05-25T05:04:10.252Z,15.10
2019-05-25T05:06:39.424Z,15.20
2019-05-25T05:09:09.644Z,15.30
2019-05-25T05:11:39.098Z,15.30
2019-05-25T05:14:09.474Z,15.50
2019-05-25T05:16:38.652Z,15.60
2019-05-25T05:19:08.587Z,15.50
2019-05-25T05:21:38.783Z,15.40
2019-05-25T05:24:07.915Z,15.40
2019-05-25T05:26:37.726Z,15.40
2019-05-25T05:29:06.857Z,15.40
2019-05-25T05:31:36.949Z,15.40
2019-05-25T05:34:06.069Z,15.40
2019-05-25T05:36:36.281Z,15.50
2019-05-25T05:39:07.955Z,15.70
2019-05-25T05:41:44.839Z,15.80
2019-05-25T05:44:17.234Z,15.90
2019-05-25T05:46:49.271Z,16.00
2019-05-25T05:49:21.017Z,16.20
2019-05-25T05:51:52.524Z,16.30
2019-05-25T05:54:22.682Z,16.50
2019-05-25T05:56:53.825Z,16.50
2019-05-25T05:59:23.941Z,16.70
2019-05-25T06:01:53.052Z,16.90
2019-05-25T06:04:22.131Z,17.00
2019-05-25T06:06:53.583Z,17.20
2019-05-25T06:09:22.688Z,17.40
2019-05-25T06:11:51.846Z,17.70
2019-05-25T06:14:29.325Z,18.00
2019-05-25T06:16:58.812Z,18.30
2019-05-25T06:19:32.950Z,18.30
2019-05-25T06:22:02.411Z,18.30
2019-05-25T06:24:33.582Z,18.50
2019-05-25T06:27:02.747Z,18.90
2019-05-25T06:29:31.892Z,19.50
2019-05-25T06:32:01.438Z,20.00
2019-05-25T06:34:30.536Z,20.50
2019-05-25T06:37:00.673Z,20.90
2019-05-25T06:39:31.336Z,21.10
2019-05-25T06:42:00.804Z,21.20
2019-05-25T06:44:29.877Z,21.10
2019-05-25T06:46:59.285Z,21.30
2019-05-25T06:49:28.694Z,21.70
2019-05-25T06:51:58.091Z,22.00
2019-05-25T06:54:27.163Z,22.10
2019-05-25T06:56:56.215Z,22.10
2019-05-25T06:59:25.610Z,22.10
2019-05-25T07:01:55.478Z,22.10
2019-05-25T07:04:24.907Z,22.20
2019-05-25T07:06:54.312Z,22.30
2019-05-25T07:09:24.000Z,22.70
2019-05-25T07:11:53.416Z,23.10
2019-05-25T07:14:26.045Z,23.30
2019-05-25T07:16:59.236Z,23.30
2019-05-25T07:19:28.333Z,23.20
2019-05-25T07:21:57.672Z,23.00
2019-05-25T07:24:27.481Z,22.70
2019-05-25T07:26:57.235Z,22.60
2019-05-25T07:29:26.314Z,22.50
2019-05-25T07:31:55.710Z,22.50
2019-05-25T07:34:25.735Z,22.40
2019-05-25T07:36:54.902Z,22.30
2019-05-25T07:39:23.973Z,22.30
2019-05-25T07:41:53.038Z,22.30
2019-05-25T07:44:22.135Z,22.30
2019-05-25T07:46:51.527Z,22.40
2019-05-25T07:49:20.595Z,22.50
2019-05-25T07:51:50.395Z,22.60
2019-05-25T07:54:19.525Z,22.60
2019-05-25T07:56:48.603Z,22.50
2019-05-25T07:59:18.305Z,22.50
2019-05-25T08:01:48.094Z,22.50
2019-05-25T08:04:17.195Z,22.50
2019-05-25T08:06:46.627Z,22.60
2019-05-25T08:09:16.743Z,22.70
2019-05-25T08:11:46.172Z,22.60
2019-05-25T08:14:15.570Z,22.40
2019-05-25T08:16:44.649Z,22.40
2019-05-25T08:19:14.401Z,22.40
2019-05-25T08:21:44.184Z,22.40
2019-05-25T08:24:13.631Z,22.40
2019-05-25T08:26:43.385Z,22.40
2019-05-25T08:29:12.482Z,22.40
2019-05-25T08:31:41.884Z,22.50
2019-05-25T08:34:14.134Z,22.50
2019-05-25T08:36:43.589Z,22.60
2019-05-25T08:39:12.962Z,22.70
2019-05-25T08:41:45.446Z,22.90
2019-05-25T08:44:13.476Z,23.20
2019-05-25T08:46:42.855Z,23.50
2019-05-25T08:49:12.232Z,23.80
2019-05-25T08:51:41.686Z,24.00
2019-05-25T08:54:10.860Z,24.20
2019-05-25T08:56:40.303Z,24.20
2019-05-25T08:59:09.395Z,24.40
2019-05-25T09:01:39.212Z,24.60
2019-05-25T09:04:08.347Z,24.80
2019-05-25T09:06:37.458Z,25.00
2019-05-25T09:09:07.675Z,25.10
2019-05-25T09:11:37.092Z,25.20
2019-05-25T09:14:06.160Z,25.30
2019-05-25T09:16:35.614Z,25.40
2019-05-25T09:19:04.687Z,25.50
2019-05-25T09:21:34.093Z,25.70
2019-05-25T09:24:03.524Z,25.90
2019-05-25T09:26:32.862Z,25.90
2019-05-25T09:29:04.827Z,26.00
2019-05-25T09:31:33.211Z,26.00
2019-05-25T09:34:02.356Z,26.00
2019-05-25T09:36:32.103Z,25.90
2019-05-25T09:39:01.271Z,25.80
2019-05-25T09:41:30.660Z,25.80
2019-05-25T09:44:00.149Z,25.90
2019-05-25T09:46:29.297Z,26.00
2019-05-25T09:48:58.375Z,26.20
2019-05-25T09:51:27.821Z,26.30
2019-05-25T09:53:57.235Z,26.30
2019-05-25T09:56:27.880Z,26.30
2019-05-25T09:58:57.368Z,26.10
2019-05-25T10:01:27.075Z,26.00
2019-05-25T10:03:56.844Z,25.90
2019-05-25T10:06:26.406Z,25.70
2019-05-25T10:08:55.835Z,25.50
2019-05-25T10:11:24.901Z,25.50
2019-05-25T10:13:53.969Z,25.60
2019-05-25T10:16:23.828Z,25.60
2019-05-25T10:18:53.722Z,25.80
2019-05-25T10:21:22.819Z,25.70
2019-05-25T10:23:51.880Z,25.40
2019-05-25T10:26:23.023Z,25.30
2019-05-25T10:28:52.053Z,25.20
2019-05-25T10:31:21.803Z,25.10
2019-05-25T10:33:52.897Z,25.10
2019-05-25T10:36:22.400Z,25.10
2019-05-25T10:38:51.804Z,25.10
2019-05-25T10:41:21.510Z,25.10
2019-05-25T10:43:50.931Z,25.10
2019-05-25T10:46:20.020Z,25.20
2019-05-25T10:48:49.079Z,25.20
2019-05-25T10:51:18.190Z,25.30
2019-05-25T10:53:47.642Z,25.30
2019-05-25T10:56:16.710Z,25.30
2019-05-25T10:58:46.163Z,25.40
2019-05-25T11:01:15.234Z,25.40
2019-05-25T11:03:44.383Z,25.50
2019-05-25T11:06:14.111Z,25.50
2019-05-25T11:08:43.292Z,25.70
2019-05-25T11:11:15.724Z,25.80
2019-05-25T11:13:45.187Z,25.90
2019-05-25T11:16:14.247Z,25.80
2019-05-25T11:18:43.353Z,26.00
2019-05-25T11:21:12.786Z,26.00
2019-05-25T11:23:42.482Z,26.00
2019-05-25T11:26:11.900Z,26.00
2019-05-25T11:28:40.991Z,25.80
2019-05-25T11:31:10.394Z,25.80
2019-05-25T11:33:39.826Z,25.70
2019-05-25T11:36:08.982Z,25.60
2019-05-25T11:38:38.733Z,25.60
2019-05-25T11:41:07.821Z,25.70
2019-05-25T11:43:36.898Z,25.70
2019-05-25T11:46:06.653Z,25.70
2019-05-25T11:48:35.809Z,25.70
2019-05-25T11:51:05.169Z,25.70
2019-05-25T11:53:36.238Z,25.70
2019-05-25T11:56:06.006Z,25.80
2019-05-25T11:58:46.909Z,25.90
2019-05-25T12:01:06.680Z,26.00
2019-05-25T12:03:36.442Z,25.90
2019-05-25T12:06:05.501Z,26.00
2019-05-25T12:08:35.414Z,26.00
2019-05-25T12:11:04.518Z,26.00
2019-05-25T12:13:33.585Z,25.80
2019-05-25T12:16:03.062Z,25.70
2019-05-25T12:18:32.145Z,25.70
2019-05-25T12:21:01.245Z,25.70
2019-05-25T12:23:30.418Z,25.70
2019-05-25T12:25:59.833Z,25.80
2019-05-25T12:28:29.224Z,25.60
2019-05-25T12:30:58.941Z,25.70
2019-05-25T12:33:28.013Z,25.70
2019-05-25T12:35:57.092Z,25.80
2019-05-25T12:38:26.551Z,25.80
2019-05-25T12:40:55.631Z,25.90
2019-05-25T12:43:24.710Z,26.00
2019-05-25T12:45:53.837Z,26.10
2019-05-25T12:48:22.893Z,26.10
2019-05-25T12:50:52.321Z,26.20
2019-05-25T12:53:21.459Z,26.10
2019-05-25T12:55:50.515Z,26.20
2019-05-25T12:58:23.847Z,26.20
2019-05-25T13:00:56.152Z,26.20
2019-05-25T13:03:28.238Z,26.00
2019-05-25T13:05:56.116Z,26.00
2019-05-25T13:08:25.183Z,26.00
2019-05-25T13:10:54.259Z,26.00
2019-05-25T13:13:23.361Z,26.00
2019-05-25T13:15:52.823Z,26.00
2019-05-25T13:18:21.878Z,26.10
2019-05-25T13:20:50.958Z,26.10
2019-05-25T13:23:20.047Z,26.10
2019-05-25T13:25:49.120Z,26.00
2019-05-25T13:28:20.007Z,26.00
2019-05-25T13:30:49.108Z,26.00
2019-05-25T13:33:18.531Z,26.00
2019-05-25T13:35:47.948Z,26.10
2019-05-25T13:38:17.020Z,26.20
2019-05-25T13:40:46.131Z,26.20
2019-05-25T13:43:15.523Z,26.20
2019-05-25T13:45:46.117Z,26.20
2019-05-25T13:48:15.755Z,26.00
2019-05-25T13:50:45.788Z,25.90
2019-05-25T13:53:15.179Z,25.80
2019-05-25T13:55:44.583Z,25.80
2019-05-25T13:58:14.000Z,25.90
2019-05-25T14:00:43.446Z,25.90
2019-05-25T14:03:12.523Z,25.90
2019-05-25T14:05:41.905Z,25.90
2019-05-25T14:08:10.967Z,25.90
2019-05-25T14:10:40.404Z,25.80
2019-05-25T14:13:09.460Z,25.50
2019-05-25T14:15:38.894Z,25.30
2019-05-25T14:18:07.975Z,25.10
2019-05-25T14:20:37.385Z,24.90
2019-05-25T14:23:06.782Z,24.90
2019-05-25T14:25:35.884Z,24.70
2019-05-25T14:28:05.373Z,24.60
2019-05-25T14:30:34.467Z,24.50
2019-05-25T14:33:04.042Z,24.40
2019-05-25T14:35:33.631Z,24.40
2019-05-25T14:38:03.433Z,24.40
2019-05-25T14:40:32.831Z,24.30
2019-05-25T14:43:01.905Z,24.20
2019-05-25T14:45:31.302Z,24.10
2019-05-25T14:48:00.492Z,24.10
2019-05-25T14:50:29.587Z,24.00
2019-05-25T14:52:58.675Z,23.90
2019-05-25T14:55:28.135Z,23.90
2019-05-25T14:57:57.582Z,23.80
2019-05-25T15:00:27.017Z,23.70
2019-05-25T15:02:56.121Z,23.60
2019-05-25T15:05:25.200Z,23.50
2019-05-25T15:07:54.614Z,23.50
2019-05-25T15:10:24.037Z,23.40
2019-05-25T15:12:53.764Z,23.40
2019-05-25T15:15:22.830Z,23.30
2019-05-25T15:17:52.245Z,23.20
2019-05-25T15:20:21.631Z,23.20
2019-05-25T15:22:50.734Z,23.20
2019-05-25T15:25:20.754Z,23.10
2019-05-25T15:27:50.129Z,23.10
2019-05-25T15:30:19.520Z,23.10
2019-05-25T15:32:48.601Z,23.10
2019-05-25T15:35:20.298Z,23.00
2019-05-25T15:37:48.708Z,23.00
2019-05-25T15:40:18.662Z,22.90
2019-05-25T15:42:48.111Z,22.80
2019-05-25T15:45:17.656Z,22.60
2019-05-25T15:47:46.729Z,22.50
2019-05-25T15:50:16.907Z,22.40
2019-05-25T15:52:46.411Z,22.30
2019-05-25T15:55:15.603Z,22.30
2019-05-25T15:57:45.666Z,22.20
2019-05-25T16:00:17.522Z,22.00
2019-05-25T16:02:46.615Z,21.90
2019-05-25T16:05:16.045Z,21.80
2019-05-25T16:07:49.642Z,21.60
2019-05-25T16:10:19.431Z,21.60
2019-05-25T16:12:49.120Z,21.50
2019-05-25T16:15:27.615Z,21.50
2019-05-25T16:17:57.036Z,21.40
2019-05-25T16:20:26.121Z,21.40
2019-05-25T16:22:55.222Z,21.30
2019-05-25T16:25:24.619Z,21.30
2019-05-25T16:27:53.698Z,21.30
2019-05-25T16:30:23.470Z,21.30
2019-05-25T16:33:11.553Z,21.30
2019-05-25T16:35:24.533Z,21.40
2019-05-25T16:37:54.048Z,21.40
2019-05-25T16:40:23.096Z,21.40
2019-05-25T16:42:52.193Z,21.40
2019-05-25T16:45:21.637Z,21.40
2019-05-25T16:47:51.018Z,21.40
2019-05-25T16:50:20.393Z,21.40
2019-05-25T16:52:49.575Z,21.40
2019-05-25T16:55:19.023Z,21.40
2019-05-25T16:57:48.152Z,21.30
2019-05-25T17:00:29.097Z,21.20
2019-05-25T17:02:59.356Z,21.20
2019-05-25T17:05:29.103Z,21.20
2019-05-25T17:07:58.690Z,21.10
2019-05-25T17:10:30.123Z,21.10
2019-05-25T17:12:59.650Z,21.10
2019-05-25T17:15:28.759Z,21.00
2019-05-25T17:17:58.285Z,20.90
2019-05-25T17:20:27.393Z,20.80
2019-05-25T17:22:56.494Z,20.70
2019-05-25T17:25:25.636Z,20.60
2019-05-25T17:27:55.097Z,20.60
2019-05-25T17:30:40.023Z,20.50
2019-05-25T17:33:09.199Z,20.60
2019-05-25T17:35:41.536Z,20.50
2019-05-25T17:38:10.939Z,20.40
2019-05-25T17:40:40.572Z,20.30
2019-05-25T17:43:09.751Z,20.30
2019-05-25T17:45:39.233Z,20.20
2019-05-25T17:48:09.459Z,20.20
2019-05-25T17:50:38.593Z,20.10
2019-05-25T17:53:08.055Z,20.10
2019-05-25T17:55:37.517Z,20.10
2019-05-25T17:58:06.693Z,20.10
2019-05-25T18:00:39.144Z,20.00
2019-05-25T18:03:08.988Z,20.00
2019-05-25T18:05:38.715Z,20.00
2019-05-25T18:08:09.064Z,20.00
2019-05-25T18:10:52.816Z,20.00
2019-05-25T18:13:12.532Z,19.90
2019-05-25T18:15:41.645Z,20.00
2019-05-25T18:18:11.373Z,20.00
2019-05-25T18:20:43.723Z,19.90
2019-05-25T18:23:13.396Z,19.90
2019-05-25T18:25:43.204Z,19.80
2019-05-25T18:28:12.272Z,19.80
2019-05-25T18:30:41.686Z,19.70
2019-05-25T18:33:10.781Z,19.60
2019-05-25T18:35:39.836Z,19.60
2019-05-25T18:38:08.918Z,19.60
2019-05-25T18:40:38.354Z,19.50
2019-05-25T18:43:07.484Z,19.50
2019-05-25T18:45:37.271Z,19.30
2019-05-25T18:48:07.175Z,19.20
2019-05-25T18:50:36.615Z,19.20
2019-05-25T18:53:06.421Z,19.10
2019-05-25T18:55:35.890Z,19.10
2019-05-25T18:58:05.149Z,19.00
2019-05-25T19:00:34.254Z,18.90
2019-05-25T19:03:03.831Z,18.90
2019-05-25T19:05:32.966Z,18.80
2019-05-25T19:08:02.047Z,18.70
2019-05-25T19:10:31.133Z,18.50
2019-05-25T19:13:01.614Z,18.50
2019-05-25T19:15:30.678Z,18.50
2019-05-25T19:18:00.055Z,18.50
2019-05-25T19:20:29.423Z,18.40
2019-05-25T19:22:58.492Z,18.30
2019-05-25T19:25:27.669Z,18.30
2019-05-25T19:27:56.710Z,18.30
2019-05-25T19:30:27.775Z,18.30
2019-05-25T19:32:58.250Z,18.20
2019-05-25T19:35:27.327Z,18.20
2019-05-25T19:37:56.426Z,18.20
2019-05-25T19:40:25.826Z,18.20
2019-05-25T19:42:55.219Z,18.10
2019-05-25T19:45:24.273Z,18.00
2019-05-25T19:47:53.762Z,18.00
2019-05-25T19:50:23.112Z,17.90
2019-05-25T19:52:52.544Z,17.90
2019-05-25T19:55:21.872Z,17.90
2019-05-25T19:57:50.938Z,17.80
2019-05-25T20:00:20.282Z,17.80
2019-05-25T20:02:49.361Z,17.80
2019-05-25T20:05:19.099Z,17.70
2019-05-25T20:07:48.636Z,17.70
2019-05-25T20:10:18.410Z,17.70
2019-05-25T20:12:47.651Z,17.70
2019-05-25T20:15:16.739Z,17.70
2019-05-25T20:17:45.859Z,17.70
2019-05-25T20:20:15.260Z,17.60
2019-05-25T20:22:46.410Z,17.50
2019-05-25T20:25:19.467Z,17.40
2019-05-25T20:27:49.585Z,17.40
2019-05-25T20:30:19.064Z,17.40
2019-05-25T20:32:49.850Z,17.40
2019-05-25T20:35:32.512Z,17.30
2019-05-25T20:37:51.953Z,17.30
2019-05-25T20:40:21.103Z,17.20
2019-05-25T20:42:50.622Z,17.00
2019-05-25T20:45:20.019Z,16.90
2019-05-25T20:47:49.866Z,16.90
2019-05-25T20:50:19.141Z,16.80
2019-05-25T20:52:48.251Z,16.80
2019-05-25T20:55:19.138Z,16.80
2019-05-25T20:57:48.810Z,16.90
2019-05-25T21:00:19.156Z,16.80
2019-05-25T21:03:04.637Z,16.80
2019-05-25T21:05:20.937Z,16.70
2019-05-25T21:07:51.737Z,16.70
2019-05-25T21:10:20.980Z,16.70
2019-05-25T21:12:50.170Z,16.70
2019-05-25T21:15:19.268Z,16.60
2019-05-25T21:17:50.690Z,16.60
2019-05-25T21:20:20.170Z,16.60
2019-05-25T21:22:49.235Z,16.50
2019-05-25T21:25:21.283Z,16.50
2019-05-25T21:27:51.711Z,16.40
2019-05-25T21:30:21.583Z,16.40
2019-05-25T21:32:50.974Z,16.40
2019-05-25T21:35:20.062Z,16.30
2019-05-25T21:37:49.179Z,16.30
2019-05-25T21:40:18.559Z,16.20
2019-05-25T21:42:48.251Z,16.10
2019-05-25T21:45:17.387Z,16.00
2019-05-25T21:47:46.446Z,15.90
2019-05-25T21:50:19.953Z,15.80
2019-05-25T21:52:49.383Z,15.70
2019-05-25T21:55:19.185Z,15.70
2019-05-25T21:57:48.330Z,15.60
2019-05-25T22:00:21.311Z,15.50
2019-05-25T22:02:50.819Z,15.60
2019-05-25T22:05:20.479Z,15.70
2019-05-25T22:07:49.561Z,15.70
2019-05-25T22:10:21.761Z,15.80
2019-05-25T22:12:50.942Z,15.80
2019-05-25T22:15:21.170Z,15.90
2019-05-25T22:17:50.304Z,15.80
2019-05-25T22:20:19.579Z,15.80
2019-05-25T22:22:51.798Z,15.80
2019-05-25T22:25:21.232Z,15.80
2019-05-25T22:27:50.506Z,15.80
2019-05-25T22:30:20.237Z,15.90
2019-05-25T22:32:51.265Z,15.90
2019-05-25T22:35:20.810Z,15.90
2019-05-25T22:37:50.298Z,15.90
2019-05-25T22:40:19.557Z,15.90
2019-05-25T22:42:48.623Z,15.90
2019-05-25T22:45:18.148Z,15.90
2019-05-25T22:47:47.703Z,15.70
2019-05-25T22:50:17.127Z,15.60
2019-05-25T22:52:46.205Z,15.60
2019-05-25T22:55:15.347Z,15.70
2019-05-25T22:57:44.417Z,15.80
2019-05-25T23:00:14.588Z,15.80
2019-05-25T23:02:43.854Z,15.90
2019-05-25T23:05:13.235Z,16.00
2019-05-25T23:07:42.680Z,15.90
2019-05-25T23:10:12.735Z,15.80
2019-05-25T23:12:42.554Z,15.80
2019-05-25T23:15:13.241Z,15.80
2019-05-25T23:17:42.581Z,15.90
2019-05-25T23:20:12.908Z,15.90
2019-05-25T23:22:41.975Z,15.90
2019-05-25T23:25:11.284Z,15.90
2019-05-25T23:27:41.014Z,16.00
2019-05-25T23:30:10.825Z,16.00
2019-05-25T23:32:40.232Z,16.00
2019-05-25T23:35:09.687Z,16.00
2019-05-25T23:37:45.925Z,16.10
2019-05-25T23:40:21.030Z,16.10
2019-05-25T23:42:52.270Z,16.10
2019-05-25T23:45:22.397Z,16.10
2019-05-25T23:47:51.927Z,16.10
2019-05-25T23:50:24.291Z,16.10
2019-05-25T23:52:54.396Z,16.10
2019-05-25T23:55:25.521Z,16.10
2019-05-25T23:58:03.786Z,16.10
